createdAt,value
2024-01-24T00:01:55.837Z,39.70
2024-01-24T00:04:25.127Z,39.00
2024-01-24T00:06:53.951Z,37.60
2024-01-24T00:09:22.873Z,37.60
2024-01-24T00:11:51.788Z,38.70
2024-01-24T00:14:20.618Z,35.70
2024-01-24T00:16:49.402Z,40.40
2024-01-24T00:19:19.228Z,39.10
2024-01-24T00:21:48.050Z,40.70
2024-01-24T00:24:16.871Z,39.60
2024-01-24T00:26:45.713Z,37.00
2024-01-24T00:29:14.575Z,39.00
2024-01-24T00:31:43.738Z,39.50
2024-01-24T00:34:12.492Z,38.60
2024-01-24T00:36:41.322Z,39.50
2024-01-24T00:39:10.742Z,39.50
2024-01-24T00:41:43.195Z,39.60
2024-01-24T00:44:11.929Z,40.40
2024-01-24T00:46:40.638Z,38.60
2024-01-24T00:49:14.362Z,37.50
2024-01-24T00:51:43.150Z,40.40
2024-01-24T00:54:12.081Z,38.50
2024-01-24T00:56:41.950Z,39.80
2024-01-24T00:59:10.745Z,37.10
2024-01-24T01:01:39.623Z,37.70
2024-01-24T01:04:08.407Z,38.00
2024-01-24T01:06:37.233Z,38.10
2024-01-24T01:09:06.211Z,36.50
2024-01-24T01:11:35.034Z,38.20
2024-01-24T01:14:04.860Z,36.90
2024-01-24T01:16:33.597Z,40.30
2024-01-24T01:19:02.452Z,38.70
2024-01-24T01:21:31.304Z,38.90
2024-01-24T01:23:59.993Z,38.90
2024-01-24T01:26:28.711Z,38.20
2024-01-24T01:28:57.432Z,38.30
2024-01-24T01:31:26.176Z,37.50
2024-01-24T01:33:55.495Z,38.00
2024-01-24T01:36:24.291Z,34.80
2024-01-24T01:38:53.179Z,34.60
2024-01-24T01:41:21.995Z,34.20
2024-01-24T01:43:50.681Z,36.40
2024-01-24T01:46:20.405Z,34.70
2024-01-24T01:48:51.641Z,36.40
2024-01-24T01:51:23.593Z,37.20
2024-01-24T01:53:52.448Z,37.50
2024-01-24T01:56:23.729Z,36.10
2024-01-24T01:58:53.660Z,37.50
2024-01-24T02:01:23.228Z,37.50
2024-01-24T02:03:52.587Z,37.40
2024-01-24T02:06:21.573Z,39.40
2024-01-24T02:08:50.479Z,38.20
2024-01-24T02:11:19.342Z,39.30
2024-01-24T02:13:48.188Z,39.80
2024-01-24T02:16:19.180Z,37.30
2024-01-24T02:18:51.532Z,41.30
2024-01-24T02:21:20.674Z,40.60
2024-01-24T02:23:49.498Z,40.10
2024-01-24T02:26:18.207Z,39.70
2024-01-24T02:28:46.888Z,41.20
2024-01-24T02:31:15.734Z,39.70
2024-01-24T02:33:44.688Z,38.20
2024-01-24T02:36:16.573Z,38.50
2024-01-24T02:38:45.466Z,39.10
2024-01-24T02:41:14.262Z,39.10
2024-01-24T02:43:43.045Z,39.80
2024-01-24T02:46:12.323Z,40.10
2024-01-24T02:48:41.596Z,38.80
2024-01-24T02:51:10.314Z,38.80
2024-01-24T02:53:40.947Z,38.30
2024-01-24T02:56:09.653Z,37.40
2024-01-24T02:58:38.315Z,38.60
2024-01-24T03:01:07.679Z,38.60
2024-01-24T03:03:40.001Z,38.00
2024-01-24T03:06:09.407Z,36.90
2024-01-24T03:08:59.416Z,35.30
2024-01-24T03:11:28.190Z,36.90
2024-01-24T03:13:56.990Z,36.60
2024-01-24T03:16:25.812Z,37.00
2024-01-24T03:18:55.228Z,37.80
2024-01-24T03:21:24.144Z,36.70
2024-01-24T03:23:52.917Z,36.40
2024-01-24T03:26:21.636Z,38.10
2024-01-24T03:28:50.333Z,36.00
2024-01-24T03:31:19.080Z,37.70
2024-01-24T03:33:47.867Z,35.50
2024-01-24T03:36:16.913Z,37.50
2024-01-24T03:38:45.662Z,37.70
2024-01-24T03:41:14.514Z,39.70
2024-01-24T03:43:43.743Z,42.30
2024-01-24T03:46:12.521Z,39.20
2024-01-24T03:48:41.434Z,39.20
2024-01-24T03:51:12.794Z,38.20
2024-01-24T03:53:41.853Z,36.60
2024-01-24T03:56:10.710Z,37.20
2024-01-24T03:58:39.440Z,39.20
2024-01-24T04:01:08.279Z,38.20
2024-01-24T04:03:37.668Z,38.20
2024-01-24T04:06:06.788Z,36.10
2024-01-24T04:08:35.466Z,36.80
2024-01-24T04:11:04.429Z,36.60
2024-01-24T04:13:33.801Z,38.20
2024-01-24T04:16:02.556Z,37.90
2024-01-24T04:18:31.389Z,36.80
2024-01-24T04:21:03.231Z,36.40
2024-01-24T04:23:31.981Z,36.70
2024-01-24T04:26:00.711Z,39.00
2024-01-24T04:28:29.448Z,36.60
2024-01-24T04:30:58.221Z,39.10
2024-01-24T04:33:27.134Z,37.40
2024-01-24T04:35:58.569Z,38.40
2024-01-24T04:38:27.307Z,37.00
2024-01-24T04:40:56.046Z,37.50
2024-01-24T04:43:24.736Z,37.40
2024-01-24T04:45:53.622Z,36.30
2024-01-24T04:48:23.288Z,36.90
2024-01-24T04:50:52.071Z,38.50
2024-01-24T04:53:21.391Z,40.00
2024-01-24T04:55:50.154Z,43.20
2024-01-24T04:58:18.943Z,39.40
2024-01-24T05:00:48.929Z,43.70
2024-01-24T05:03:17.781Z,40.80
2024-01-24T05:05:47.695Z,40.90
2024-01-24T05:08:17.577Z,40.40
2024-01-24T05:10:46.435Z,43.90
2024-01-24T05:13:15.217Z,47.10
2024-01-24T05:15:43.947Z,41.10
2024-01-24T05:18:12.951Z,38.70
2024-01-24T05:20:41.787Z,40.90
2024-01-24T05:23:10.516Z,37.30
2024-01-24T05:25:39.277Z,37.40
2024-01-24T05:28:09.561Z,39.40
2024-01-24T05:30:39.433Z,38.20
2024-01-24T05:33:08.425Z,36.20
2024-01-24T05:35:37.136Z,34.30
2024-01-24T05:38:05.889Z,35.90
2024-01-24T05:40:34.675Z,34.40
2024-01-24T05:43:04.900Z,35.40
2024-01-24T05:45:33.774Z,39.20
2024-01-24T05:48:02.767Z,38.60
2024-01-24T05:50:31.571Z,39.30
2024-01-24T05:53:00.323Z,41.80
2024-01-24T05:55:29.769Z,42.40
2024-01-24T05:57:58.530Z,39.40
2024-01-24T06:00:27.435Z,41.90
2024-01-24T06:02:56.188Z,40.60
2024-01-24T06:05:25.172Z,40.30
2024-01-24T06:07:54.248Z,40.10
2024-01-24T06:10:23.162Z,38.50
2024-01-24T06:12:52.039Z,39.10
2024-01-24T06:15:21.192Z,48.20
2024-01-24T06:17:50.392Z,43.50
2024-01-24T06:20:19.302Z,39.70
2024-01-24T06:22:48.041Z,40.00
2024-01-24T06:25:17.253Z,38.30
2024-01-24T06:27:46.644Z,40.50
2024-01-24T06:30:22.036Z,41.90
2024-01-24T06:32:53.356Z,44.90
2024-01-24T06:35:22.663Z,41.70
2024-01-24T06:37:53.175Z,40.90
2024-01-24T06:40:22.148Z,43.90
2024-01-24T06:42:52.047Z,43.70
2024-01-24T06:45:21.575Z,42.50
2024-01-24T06:47:50.552Z,45.90
2024-01-24T06:50:19.831Z,45.20
2024-01-24T06:52:48.826Z,41.20
2024-01-24T06:55:19.024Z,39.00
2024-01-24T06:57:48.082Z,39.20
2024-01-24T07:00:17.607Z,38.60
2024-01-24T07:02:46.398Z,38.40
2024-01-24T07:05:15.436Z,37.90
2024-01-24T07:07:44.271Z,38.80
2024-01-24T07:10:13.546Z,43.70
2024-01-24T07:12:47.450Z,48.30
2024-01-24T07:15:17.941Z,49.70
2024-01-24T07:17:47.410Z,50.20
2024-01-24T07:20:17.487Z,53.00
2024-01-24T07:22:46.280Z,50.80
2024-01-24T07:25:15.178Z,52.90
2024-01-24T07:27:46.286Z,50.10
2024-01-24T07:30:16.935Z,52.10
2024-01-24T07:32:45.987Z,52.00
2024-01-24T07:35:14.857Z,55.70
2024-01-24T07:37:45.736Z,54.30
2024-01-24T07:40:19.634Z,53.40
2024-01-24T07:42:49.047Z,53.80
2024-01-24T07:45:20.061Z,52.90
2024-01-24T07:47:49.837Z,51.80
2024-01-24T07:50:18.963Z,54.50
2024-01-24T07:52:48.097Z,57.20
2024-01-24T07:55:19.822Z,53.20
2024-01-24T07:57:53.746Z,54.90
2024-01-24T08:00:22.641Z,54.10
2024-01-24T08:02:52.106Z,57.90
2024-01-24T08:05:23.533Z,58.30
2024-01-24T08:07:52.548Z,57.40
2024-01-24T08:10:21.728Z,56.60
2024-01-24T08:12:52.252Z,54.90
2024-01-24T08:15:21.964Z,53.30
2024-01-24T08:17:51.166Z,52.80
2024-01-24T08:20:21.445Z,50.80
2024-01-24T08:22:50.576Z,52.30
2024-01-24T08:25:19.658Z,49.40
2024-01-24T08:27:48.466Z,47.50
2024-01-24T08:30:17.397Z,50.20
2024-01-24T08:32:46.429Z,51.00
2024-01-24T08:35:15.958Z,49.70
2024-01-24T08:37:45.087Z,48.70
2024-01-24T08:40:14.055Z,49.30
2024-01-24T08:42:44.578Z,49.50
2024-01-24T08:45:13.485Z,47.20
2024-01-24T08:47:42.483Z,49.70
2024-01-24T08:50:11.931Z,48.30
2024-01-24T08:52:41.063Z,48.80
2024-01-24T08:55:10.012Z,47.60
2024-01-24T08:57:39.066Z,47.90
2024-01-24T09:00:09.938Z,48.70
2024-01-24T09:02:38.995Z,45.90
2024-01-24T09:05:09.955Z,42.60
2024-01-24T09:07:39.771Z,46.40
2024-01-24T09:10:10.204Z,47.60
2024-01-24T09:12:39.698Z,46.10
2024-01-24T09:15:09.337Z,49.30
2024-01-24T09:17:38.387Z,49.60
2024-01-24T09:20:10.288Z,49.20
2024-01-24T09:22:39.337Z,49.60
2024-01-24T09:25:09.896Z,52.60
2024-01-24T09:27:41.482Z,54.20
2024-01-24T09:30:11.534Z,53.00
2024-01-24T09:32:40.448Z,55.00
2024-01-24T09:35:10.069Z,52.90
2024-01-24T09:37:39.118Z,53.50
2024-01-24T09:40:10.526Z,50.20
2024-01-24T09:42:44.914Z,51.20
2024-01-24T09:45:20.147Z,47.70
2024-01-24T09:47:50.848Z,51.00
2024-01-24T09:50:20.459Z,51.10
2024-01-24T09:52:51.567Z,50.50
2024-01-24T09:55:22.134Z,52.30
2024-01-24T09:57:51.606Z,51.40
2024-01-24T10:00:20.728Z,52.30
2024-01-24T10:02:50.117Z,50.20
2024-01-24T10:05:21.733Z,54.30
2024-01-24T10:07:51.932Z,49.50
2024-01-24T10:10:20.846Z,49.20
2024-01-24T10:12:49.795Z,48.20
2024-01-24T10:15:19.256Z,47.20
2024-01-24T10:17:48.195Z,47.30
2024-01-24T10:20:17.290Z,46.60
2024-01-24T10:22:47.608Z,45.70
2024-01-24T10:25:18.174Z,47.00
2024-01-24T10:27:47.026Z,46.50
2024-01-24T10:30:17.423Z,45.50
2024-01-24T10:32:50.256Z,45.00
2024-01-24T10:35:20.045Z,44.60
2024-01-24T10:37:49.102Z,43.20
2024-01-24T10:40:18.912Z,41.90
2024-01-24T10:42:55.052Z,38.20
2024-01-24T10:45:27.548Z,36.30
2024-01-24T10:47:56.961Z,34.90
2024-01-24T10:50:26.799Z,33.70
2024-01-24T10:52:56.559Z,34.70
2024-01-24T10:55:26.215Z,30.40
2024-01-24T10:57:55.540Z,33.90
2024-01-24T11:00:26.565Z,34.70
2024-01-24T11:02:56.411Z,37.10
2024-01-24T11:05:40.697Z,35.50
2024-01-24T11:08:17.525Z,34.30
2024-01-24T11:10:50.325Z,28.20
2024-01-24T11:13:20.377Z,19.30
2024-01-24T11:15:49.177Z,16.50
2024-01-24T11:18:24.223Z,16.40
2024-01-24T11:21:01.068Z,16.60
2024-01-24T11:23:47.316Z,17.20
2024-01-24T11:26:19.375Z,16.20
2024-01-24T11:28:48.217Z,16.40
2024-01-24T11:31:38.299Z,15.50
2024-01-24T11:34:14.680Z,15.70
2024-01-24T11:36:50.227Z,15.50
2024-01-24T11:39:32.148Z,15.90
2024-01-24T11:42:44.657Z,15.10
2024-01-24T11:45:15.926Z,15.00
2024-01-24T11:47:45.259Z,14.80
2024-01-24T11:50:15.146Z,12.90
2024-01-24T11:52:46.975Z,14.70
2024-01-24T11:55:16.040Z,18.20
2024-01-24T11:57:44.913Z,15.50
2024-01-24T12:00:16.253Z,14.90
2024-01-24T12:02:46.775Z,14.70
2024-01-24T12:05:17.695Z,13.10
2024-01-24T12:07:46.751Z,16.00
2024-01-24T12:10:15.677Z,16.00
2024-01-24T12:12:45.131Z,14.50
2024-01-24T12:15:14.216Z,15.30
2024-01-24T12:17:45.074Z,14.50
2024-01-24T12:20:25.319Z,15.40
2024-01-24T12:22:54.279Z,16.00
2024-01-24T12:25:23.720Z,16.80
2024-01-24T12:27:52.888Z,17.00
2024-01-24T12:30:23.146Z,16.40
2024-01-24T12:32:58.647Z,17.90
2024-01-24T12:35:29.888Z,18.10
2024-01-24T12:38:03.770Z,18.70
2024-01-24T12:40:33.356Z,19.50
2024-01-24T12:43:02.452Z,17.40
2024-01-24T12:45:31.335Z,18.90
2024-01-24T12:48:00.459Z,18.80
2024-01-24T12:50:29.707Z,19.20
2024-01-24T12:52:58.621Z,19.40
2024-01-24T12:55:28.304Z,18.10
2024-01-24T12:57:57.227Z,18.10
2024-01-24T13:00:26.148Z,14.10
2024-01-24T13:02:54.928Z,15.30
2024-01-24T13:05:32.003Z,17.20
2024-01-24T13:08:09.705Z,17.30
2024-01-24T13:10:44.114Z,16.40
2024-01-24T13:13:13.333Z,16.40
2024-01-24T13:15:42.620Z,18.80
2024-01-24T13:18:12.670Z,16.10
2024-01-24T13:20:41.622Z,17.50
2024-01-24T13:23:10.348Z,18.40
2024-01-24T13:25:39.360Z,17.10
2024-01-24T13:28:11.090Z,16.10
2024-01-24T13:30:41.018Z,16.90
2024-01-24T13:33:11.267Z,14.50
2024-01-24T13:35:40.404Z,17.30
2024-01-24T13:38:09.637Z,16.70
2024-01-24T13:40:39.709Z,16.50
2024-01-24T13:43:08.516Z,18.60
2024-01-24T13:45:39.895Z,19.00
2024-01-24T13:48:11.167Z,17.60
2024-01-24T13:50:40.260Z,17.20
2024-01-24T13:53:09.200Z,17.10
2024-01-24T13:55:38.025Z,18.10
2024-01-24T13:58:07.254Z,16.30
2024-01-24T14:00:36.207Z,17.70
2024-01-24T14:03:06.525Z,16.80
2024-01-24T14:05:36.837Z,18.60
2024-01-24T14:08:09.384Z,17.40
2024-01-24T14:10:38.533Z,19.40
2024-01-24T14:13:08.049Z,18.50
2024-01-24T14:15:37.820Z,19.60
2024-01-24T14:18:07.333Z,19.50
2024-01-24T14:20:36.286Z,18.90
2024-01-24T14:23:07.582Z,19.10
2024-01-24T14:25:36.392Z,19.90
2024-01-24T14:28:05.869Z,19.50
2024-01-24T14:30:34.881Z,20.10
2024-01-24T14:33:05.359Z,20.20
2024-01-24T14:35:35.023Z,20.60
2024-01-24T14:38:04.132Z,20.50
2024-01-24T14:40:33.642Z,20.20
2024-01-24T14:43:05.314Z,18.90
2024-01-24T14:45:34.300Z,22.30
2024-01-24T14:48:03.214Z,17.10
2024-01-24T14:50:32.014Z,21.80
2024-01-24T14:53:00.975Z,22.30
2024-01-24T14:55:29.937Z,20.80
2024-01-24T14:58:01.339Z,17.10
2024-01-24T15:00:30.304Z,21.90
2024-01-24T15:02:59.476Z,22.10
2024-01-24T15:05:28.318Z,22.60
2024-01-24T15:07:57.305Z,18.40
2024-01-24T15:10:26.101Z,22.10
2024-01-24T15:12:54.964Z,25.10
2024-01-24T15:15:23.921Z,24.10
2024-01-24T15:17:53.373Z,23.30
2024-01-24T15:20:22.432Z,24.10
2024-01-24T15:22:51.471Z,22.70
2024-01-24T15:25:20.582Z,24.40
2024-01-24T15:27:50.917Z,23.20
2024-01-24T15:30:20.194Z,24.20
2024-01-24T15:32:48.957Z,25.90
2024-01-24T15:35:17.910Z,24.90
2024-01-24T15:37:46.876Z,32.30
2024-01-24T15:40:18.353Z,27.20
2024-01-24T15:42:47.681Z,25.20
2024-01-24T15:45:18.072Z,23.00
2024-01-24T15:47:47.000Z,23.20
2024-01-24T15:50:15.955Z,26.10
2024-01-24T15:52:44.705Z,25.70
2024-01-24T15:55:13.692Z,26.10
2024-01-24T15:57:42.756Z,25.20
2024-01-24T16:00:12.601Z,25.80
2024-01-24T16:02:42.692Z,25.00
2024-01-24T16:05:36.692Z,26.90
2024-01-24T16:08:06.235Z,26.60
2024-01-24T16:10:35.108Z,28.50
2024-01-24T16:13:04.908Z,30.40
2024-01-24T16:15:33.960Z,31.20
2024-01-24T16:18:03.268Z,28.80
2024-01-24T16:20:32.075Z,36.70
2024-01-24T16:23:01.259Z,27.90
2024-01-24T16:25:30.115Z,30.00
2024-01-24T16:27:59.310Z,28.30
2024-01-24T16:30:29.700Z,27.80
2024-01-24T16:32:59.007Z,26.90
2024-01-24T16:35:28.381Z,26.10
2024-01-24T16:37:57.467Z,27.70
2024-01-24T16:40:26.238Z,26.00
2024-01-24T16:42:55.025Z,27.40
2024-01-24T16:45:24.251Z,26.60
2024-01-24T16:47:53.126Z,27.80
2024-01-24T16:50:21.951Z,26.20
2024-01-24T16:52:51.023Z,27.40
2024-01-24T16:55:20.286Z,25.50
2024-01-24T16:57:49.101Z,26.40
2024-01-24T17:00:19.288Z,22.40
2024-01-24T17:02:51.737Z,25.70
2024-01-24T17:05:27.003Z,25.20
2024-01-24T17:07:55.788Z,26.30
2024-01-24T17:10:24.576Z,27.60
2024-01-24T17:12:53.450Z,25.90
2024-01-24T17:15:22.305Z,26.80
2024-01-24T17:17:51.228Z,36.60
2024-01-24T17:20:20.634Z,33.50
2024-01-24T17:22:49.459Z,27.60
2024-01-24T17:25:19.229Z,26.40
2024-01-24T17:27:48.041Z,25.40
2024-01-24T17:30:17.484Z,26.20
2024-01-24T17:32:46.404Z,22.60
2024-01-24T17:35:15.173Z,23.60
2024-01-24T17:37:43.964Z,18.10
2024-01-24T17:40:13.513Z,14.70
2024-01-24T17:42:42.644Z,22.70
2024-01-24T17:45:11.488Z,21.00
2024-01-24T17:47:43.189Z,22.80
2024-01-24T17:50:13.164Z,22.80
2024-01-24T17:52:43.948Z,21.60
2024-01-24T17:55:13.144Z,23.00
2024-01-24T17:57:43.459Z,19.80
2024-01-24T18:00:14.455Z,22.60
2024-01-24T18:02:43.271Z,20.50
2024-01-24T18:05:12.091Z,21.40
2024-01-24T18:07:41.580Z,19.40
2024-01-24T18:10:10.795Z,22.60
2024-01-24T18:12:39.817Z,20.70
2024-01-24T18:15:09.443Z,22.60
2024-01-24T18:17:39.054Z,21.40
2024-01-24T18:20:08.754Z,23.50
2024-01-24T18:22:37.621Z,22.50
2024-01-24T18:25:06.713Z,23.80
2024-01-24T18:27:35.576Z,25.50
2024-01-24T18:30:05.660Z,26.50
2024-01-24T18:32:35.766Z,26.70
2024-01-24T18:35:05.627Z,28.30
2024-01-24T18:37:34.380Z,28.90
2024-01-24T18:40:07.831Z,28.70
2024-01-24T18:42:37.382Z,29.30
2024-01-24T18:45:11.927Z,32.00
2024-01-24T18:47:40.966Z,33.80
2024-01-24T18:50:10.210Z,31.90
2024-01-24T18:52:39.430Z,32.70
2024-01-24T18:55:11.935Z,31.10
2024-01-24T18:57:40.746Z,32.50
2024-01-24T19:00:11.122Z,30.30
2024-01-24T19:02:40.191Z,30.80
2024-01-24T19:05:15.896Z,30.40
2024-01-24T19:07:48.689Z,28.80
2024-01-24T19:10:17.657Z,28.70
2024-01-24T19:12:46.722Z,27.90
2024-01-24T19:15:15.775Z,28.10
2024-01-24T19:17:44.716Z,27.00
2024-01-24T19:20:16.208Z,27.80
2024-01-24T19:22:45.114Z,27.70
2024-01-24T19:25:14.222Z,26.80
2024-01-24T19:27:43.375Z,24.60
2024-01-24T19:30:13.274Z,25.00
2024-01-24T19:32:42.403Z,24.50
2024-01-24T19:35:11.211Z,24.50
2024-01-24T19:37:39.921Z,23.60
2024-01-24T19:40:09.824Z,21.60
2024-01-24T19:42:38.656Z,24.20
2024-01-24T19:45:08.373Z,23.60
2024-01-24T19:47:39.825Z,25.30
2024-01-24T19:50:11.737Z,25.10
2024-01-24T19:52:40.583Z,26.00
2024-01-24T19:55:10.008Z,25.00
2024-01-24T19:57:40.098Z,27.60
2024-01-24T20:00:12.750Z,26.30
2024-01-24T20:02:41.781Z,25.60
2024-01-24T20:05:10.750Z,23.80
2024-01-24T20:07:39.768Z,25.80
2024-01-24T20:10:09.191Z,25.60
2024-01-24T20:12:38.018Z,25.30
2024-01-24T20:15:07.711Z,28.20
2024-01-24T20:17:36.519Z,26.80
2024-01-24T20:20:07.078Z,29.90
2024-01-24T20:22:35.866Z,22.20
2024-01-24T20:25:04.986Z,20.40
2024-01-24T20:27:34.017Z,21.30
2024-01-24T20:30:02.972Z,32.50
2024-01-24T20:32:31.780Z,27.10
2024-01-24T20:35:00.590Z,22.80
2024-01-24T20:37:29.421Z,23.60
2024-01-24T20:39:58.196Z,23.70
2024-01-24T20:42:29.426Z,23.00
2024-01-24T20:44:59.241Z,20.60
2024-01-24T20:47:28.679Z,20.60
2024-01-24T20:49:57.708Z,19.90
2024-01-24T20:52:26.593Z,20.40
2024-01-24T20:54:55.319Z,20.40
2024-01-24T20:57:24.036Z,20.60
2024-01-24T20:59:53.150Z,21.70
2024-01-24T21:02:22.520Z,21.20
2024-01-24T21:04:51.939Z,21.20
2024-01-24T21:07:21.038Z,21.10
2024-01-24T21:09:50.443Z,20.60
2024-01-24T21:12:19.950Z,20.50
2024-01-24T21:14:48.884Z,19.50
2024-01-24T21:17:18.387Z,21.70
2024-01-24T21:19:47.339Z,21.00
2024-01-24T21:22:16.156Z,22.70
2024-01-24T21:24:45.932Z,21.80
2024-01-24T21:27:14.606Z,22.60
2024-01-24T21:29:45.446Z,22.80
2024-01-24T21:32:15.008Z,24.40
2024-01-24T21:34:43.992Z,22.70
2024-01-24T21:37:12.731Z,22.60
2024-01-24T21:39:42.065Z,24.50
2024-01-24T21:42:10.800Z,24.40
2024-01-24T21:44:39.544Z,23.40
2024-01-24T21:47:08.312Z,22.90
2024-01-24T21:49:39.733Z,24.20
2024-01-24T21:52:09.478Z,22.00
2024-01-24T21:54:40.239Z,22.70
2024-01-24T21:57:08.960Z,22.10
2024-01-24T21:59:37.699Z,23.20
2024-01-24T22:02:06.483Z,22.20
2024-01-24T22:04:35.207Z,22.00
2024-01-24T22:07:04.637Z,21.40
2024-01-24T22:09:33.486Z,21.50
2024-01-24T22:12:02.353Z,23.30
2024-01-24T22:14:31.297Z,21.00
2024-01-24T22:17:00.000Z,22.00
2024-01-24T22:19:28.930Z,21.60
2024-01-24T22:21:58.183Z,20.80
2024-01-24T22:24:27.004Z,21.00
2024-01-24T22:26:55.717Z,20.90
2024-01-24T22:29:24.584Z,20.60
2024-01-24T22:31:53.411Z,21.60
2024-01-24T22:34:22.384Z,21.60
2024-01-24T22:36:51.267Z,20.80
2024-01-24T22:39:20.515Z,21.20
2024-01-24T22:41:49.230Z,19.00
2024-01-24T22:44:20.946Z,20.70
2024-01-24T22:46:49.665Z,21.00
2024-01-24T22:49:18.436Z,20.30
2024-01-24T22:51:47.355Z,20.50
2024-01-24T22:54:17.118Z,21.50
2024-01-24T22:56:45.857Z,21.90
2024-01-24T22:59:14.613Z,21.90
2024-01-24T23:01:43.374Z,21.20
2024-01-24T23:04:12.733Z,21.20
2024-01-24T23:06:41.644Z,22.00
2024-01-24T23:09:10.438Z,21.20
2024-01-24T23:11:40.138Z,21.80
2024-01-24T23:14:08.861Z,21.40
2024-01-24T23:16:37.526Z,22.40
2024-01-24T23:19:06.343Z,20.70
2024-01-24T23:21:35.482Z,20.60
2024-01-24T23:24:04.662Z,20.50
2024-01-24T23:26:33.348Z,24.50
2024-01-24T23:29:02.127Z,23.30
2024-01-24T23:31:30.882Z,22.70
2024-01-24T23:33:59.792Z,23.50
2024-01-24T23:36:28.775Z,22.50
2024-01-24T23:38:57.480Z,19.40
2024-01-24T23:41:26.220Z,19.50
2024-01-24T23:43:54.889Z,19.60
2024-01-24T23:46:23.692Z,19.20
2024-01-24T23:48:52.741Z,23.20
2024-01-24T23:51:21.865Z,23.30
2024-01-24T23:53:50.666Z,27.80
2024-01-24T23:56:19.930Z,22.10
2024-01-24T23:58:49.013Z,24.00
